Colorado Star — 9HA2189 — position and weather

sailwx.info

Track history (hours):
 
Tides and Currents Weather Stations Pressure Air Temp Water Temp Dewpoint Dewpoint Depression Visibility Wind Speed Wind Dir Waves Ship Positions

Colorado Star

Last reported at 2014-Jul-23 10:33 UTC. Time now 2014-Jul-23 11:31 UTC.
Position N 49°29' W 000°08'.

Length 128 m; draft 7.8 m.

Type: Ship. MMSI: 248127000.

Date/timePositionNaut miles runAvg speedWind from/ knotsBaromVisibWave heightAir tempDewpointWater temp
2014-Jul-23 10:33N 49°29' W 000°08'0 0.0
2014-Jul-23 09:33N 49°29' W 000°08'0 0.1
2014-Jul-23 08:33N 49°29' W 000°08'0 0.0
2014-Jul-23 07:33N 49°29' W 000°08'0 0.0
2014-Jul-23 06:33N 49°29' W 000°08'0 0.0
2014-Jul-23 05:33N 49°29' W 000°08'0 0.2
2014-Jul-23 04:33N 49°29' W 000°08'0 0.1
2014-Jul-23 03:33N 49°29' W 000°08'0 0.0
2014-Jul-23 02:33N 49°29' W 000°08'0 0.0
2014-Jul-23 01:33N 49°29' W 000°08'0 0.0
2014-Jul-23 00:33N 49°29' W 000°08'0 0.0
2014-Jul-22 23:33N 49°29' W 000°08'0 0.0
2014-Jul-22 22:33N 49°29' W 000°08'0 0.0
2014-Jul-22 21:33N 49°29' W 000°08'0 0.0
2014-Jul-22 20:33N 49°29' W 000°08'0 0.0
2014-Jul-22 19:33N 49°29' W 000°08'0 0.1
2014-Jul-22 18:33N 49°29' W 000°08'0 0.0
2014-Jul-22 17:33N 49°29' W 000°08'0 0.1
2014-Jul-22 16:33N 49°29' W 000°08'0 0.2
2014-Jul-22 15:33N 49°29' W 000°08'0 0.0
2014-Jul-22 14:33N 49°29' W 000°08'0 0.0
2014-Jul-22 13:33N 49°29' W 000°08'0 0.0
2014-Jul-22 12:33N 49°29' W 000°08'0 0.0
2014-Jul-22 11:33N 49°29' W 000°08'0 0.0
2014-Jul-22 10:33N 49°29' W 000°08'2 2.4
2014-Jul-22 09:33N 49°29' W 000°05'1110.7
2014-Jul-22 08:33N 49°26' E 000°11'1110.8
2014-Jul-22 07:33N 49°28' E 000°27'3 3.5
2014-Jul-22 06:33N 49°28' E 000°33'0 0.0
2014-Jul-22 05:21N 49°28' E 000°33'0 0.0
2014-Jul-21 02:33N 49°28' E 000°33'9 8.7
2014-Jul-21 01:33N 49°26' E 000°20'1211.5
2014-Jul-21 00:33N 49°27' E 000°02'5 5.1
2014-Jul-20 23:33N 49°28' W 000°06'0 0.0
2014-Jul-20 22:33N 49°28' W 000°06'0 0.0
2014-Jul-20 21:33N 49°28' W 000°06'0 0.0
2014-Jul-20 20:33N 49°28' W 000°06'0 0.0
2014-Jul-20 19:33N 49°28' W 000°06'0 0.0
2014-Jul-20 18:33N 49°28' W 000°06'0 0.0
2014-Jul-20 17:33N 49°28' W 000°06'0 0.0
2014-Jul-20 16:33N 49°29' W 000°06'6 6.4
2014-Jul-20 15:33N 49°27' E 000°04'1010.5
2014-Jul-20 14:33N 49°26' E 000°20'9 0.7
2014-Jul-20 02:06N 49°28' E 000°33'1 1.4
2014-Jul-20 01:28N 49°28' E 000°32'1011.1
2014-Jul-20 00:33N 49°26' E 000°17'1212.4
2014-Jul-19 23:33N 49°28' W 000°02'3 2.6
2014-Jul-19 22:34N 49°29' W 000°06'0 0.0
2014-Jul-19 21:31N 49°29' W 000°06'0 0.0
2014-Jul-19 20:31N 49°29' W 000°06'0 0.0
2014-Jul-19 19:30N 49°29' W 000°06'0 0.0
2014-Jul-19 18:30N 49°29' W 000°06'0 0.1
2014-Jul-19 17:34N 49°29' W 000°06'0 0.0
2014-Jul-19 16:31N 49°29' W 000°06'0 0.1
2014-Jul-19 15:24N 49°29' W 000°06'0 0.0
2014-Jul-19 14:31N 49°29' W 000°06'0 0.0
2014-Jul-19 13:30N 49°29' W 000°06'0 0.1
2014-Jul-19 12:24N 49°29' W 000°06'0 0.1
2014-Jul-19 11:34N 49°29' W 000°06'0 0.1
2014-Jul-19 10:30N 49°29' W 000°06'0 0.1
2014-Jul-19 09:24N 49°29' W 000°06'0 0.0
2014-Jul-19 08:33N 49°29' W 000°06'0 0.0
2014-Jul-19 07:33N 49°29' W 000°06'0 0.0
2014-Jul-19 06:33N 49°29' W 000°06'0 0.1
2014-Jul-19 05:33N 49°29' W 000°06'0 0.1
2014-Jul-19 04:33N 49°29' W 000°06'0 0.0
2014-Jul-19 03:30N 49°29' W 000°06'0 0.0
2014-Jul-19 02:30N 49°29' W 000°06'0 0.0
2014-Jul-19 01:33N 49°29' W 000°06'0 0.1
2014-Jul-19 00:30N 49°29' W 000°06'0 0.1
2014-Jul-18 23:30N 49°29' W 000°06'0 0.1
2014-Jul-18 22:27N 49°29' W 000°06'0 0.0
2014-Jul-18 21:30N 49°29' W 000°06'0 0.0
2014-Jul-18 20:30N 49°29' W 000°06'0 0.0
2014-Jul-18 19:24N 49°29' W 000°06'0 0.0
2014-Jul-18 18:30N 49°29' W 000°06'0 0.0
2014-Jul-18 17:33N 49°29' W 000°06'0 0.0
2014-Jul-18 16:30N 49°29' W 000°06'0 0.0
2014-Jul-18 15:24N 49°29' W 000°06'0 0.0
2014-Jul-18 14:33N 49°29' W 000°06'0 0.1
2014-Jul-18 13:30N 49°29' W 000°06'0 0.0
2014-Jul-18 12:30N 49°29' W 000°06'3 3.4
2014-Jul-18 11:33N 49°30' W 000°10'1211.8
2014-Jul-18 10:34N 49°42' W 000°10'1312.5
2014-Jul-18 09:32N 49°55' W 000°07'1312.5
2014-Jul-18 08:29N 50°08' W 000°06'1212.4
2014-Jul-18 07:33N 50°19' W 000°04'1111.2
2014-Jul-18 06:33N 50°29' E 000°05'1413.6
2014-Jul-18 05:33N 50°34' E 000°25'1212.3
2014-Jul-18 04:33N 50°39' E 000°42'1111.4
2014-Jul-18 03:33N 50°47' E 000°56'1110.8
2014-Jul-18 02:33N 50°54' E 001°08'1111.2
2014-Jul-18 01:33N 51°02' E 001°22'1413.9
2014-Jul-18 00:33N 51°10' E 001°39'1514.6
2014-Jul-17 23:33N 51°22' E 001°53'1414.1
2014-Jul-17 22:34N 51°32' E 002°08'1312.6
2014-Jul-17 21:34N 51°42' E 002°21'1111.5
2014-Jul-17 20:33N 51°49' E 002°35'1111.4
2014-Jul-17 19:33N 51°47' E 002°53'1111.4
2014-Jul-17 18:33N 51°49' E 003°11'6 6.5
2014-Jul-17 17:33N 51°49' E 003°22'0 0.0
2014-Jul-17 16:33N 51°49' E 003°22'0 0.1
2014-Jul-17 15:33N 51°49' E 003°22'0 0.0
2014-Jul-17 14:34N 51°49' E 003°22'0 0.0
2014-Jul-17 13:33N 51°49' E 003°22'0 0.0
2014-Jul-17 12:33N 51°49' E 003°22'0 0.0
2014-Jul-17 11:34N 51°49' E 003°22'0 0.0
2014-Jul-17 10:33N 51°49' E 003°22'0 0.0
2014-Jul-17 09:33N 51°49' E 003°22'0 0.1
2014-Jul-17 08:31N 51°49' E 003°22'0 0.0
2014-Jul-17 07:30N 51°49' E 003°22'0 0.0
2014-Jul-17 06:29N 51°49' E 003°22'7 7.2
2014-Jul-17 05:33N 51°43' E 003°16'1313.4
2014-Jul-17 04:33N 51°31' E 003°26'9 9.2
2014-Jul-17 03:34N 51°26' E 003°39'8 8.4
2014-Jul-17 02:34N 51°21' E 003°49'9 8.8
2014-Jul-17 01:33N 51°26' E 004°00'8 7.9
2014-Jul-17 00:33N 51°24' E 004°12'9 8.7
2014-Jul-16 23:33N 51°17' E 004°20'0 0.5
2014-Jul-16 22:33N 51°16' E 004°20'2 1.5
2014-Jul-16 21:33N 51°15' E 004°22'0 0.0
2014-Jul-16 20:33N 51°15' E 004°22'0 0.0
2014-Jul-16 19:33N 51°15' E 004°22'0 0.0
2014-Jul-16 18:33N 51°15' E 004°22'0 0.0
2014-Jul-16 17:33N 51°15' E 004°22'0 0.0
2014-Jul-16 16:33N 51°15' E 004°22'0 0.0
2014-Jul-16 15:33N 51°15' E 004°22'0 0.0
2014-Jul-16 14:33N 51°15' E 004°22'0 0.0
2014-Jul-16 13:33N 51°15' E 004°22'0 0.0
2014-Jul-16 12:33N 51°15' E 004°22'0 0.0
2014-Jul-16 11:30N 51°15' E 004°22'0 0.0
2014-Jul-16 10:33N 51°15' E 004°22'0 0.0
2014-Jul-16 09:33N 51°15' E 004°22'0 0.0
2014-Jul-16 08:33N 51°15' E 004°22'0 0.0
2014-Jul-16 07:33N 51°15' E 004°22'0 0.0
2014-Jul-16 06:30N 51°15' E 004°22'0 0.0
2014-Jul-16 05:33N 51°15' E 004°22'0 0.0
2014-Jul-16 04:33N 51°15' E 004°22'0 0.0
2014-Jul-16 03:30N 51°15' E 004°22'0 0.0
2014-Jul-16 02:33N 51°15' E 004°22'0 0.0
2014-Jul-16 01:30N 51°15' E 004°22'0 0.0
2014-Jul-16 00:33N 51°15' E 004°22'2 2.0
2014-Jul-15 23:34N 51°17' E 004°20'3 2.8
2014-Jul-15 22:34N 51°18' E 004°16'7 6.8
2014-Jul-15 21:33N 51°22' E 004°08'7 6.6
2014-Jul-15 20:33N 51°24' E 003°57'8 8.4
2014-Jul-15 19:34N 51°22' E 003°44'8 8.1
2014-Jul-15 18:33N 51°25' E 003°32'1010.3
2014-Jul-15 17:34N 51°25' E 003°16'1211.9
2014-Jul-15 16:33N 51°23' E 002°57'1212.3
2014-Jul-15 15:33N 51°22' E 002°37'9 8.9
2014-Jul-15 14:30N 51°20' E 002°23'1312.3
2014-Jul-15 13:28N 51°13' E 002°05'1112.5
2014-Jul-15 12:34N 51°07' E 001°50'1612.0
2014-Jul-15 11:15N 50°56' E 001°32'710.3
2014-Jul-15 10:32N 50°49' E 001°27'29 9.8
2014-Jul-15 07:34N 50°28' E 000°56'1010.4
2014-Jul-15 06:34N 50°25' E 000°40'1010.2
2014-Jul-15 05:33N 50°22' E 000°25'41 9.8
2014-Jul-15 01:20N 49°46' W 000°09'912.1
2014-Jul-15 00:34N 49°37' W 000°11'9 9.1
2014-Jul-14 23:33N 49°29' W 000°04'1111.2
2014-Jul-14 22:34N 49°26' E 000°13'9 9.1
2014-Jul-14 21:34N 49°28' E 000°26'4 3.9
2014-Jul-14 20:33N 49°28' E 000°32'0 0.0
2014-Jul-14 15:17N 49°28' E 000°32'0 0.0
2014-Jul-14 08:11N 49°28' E 000°32'0 0.0
2014-Jul-14 05:17N 49°28' E 000°32'0 0.0
2014-Jul-14 04:17N 49°28' E 000°32'0 0.0
2014-Jul-13 12:11N 49°28' E 000°32'  
Track history (hours):
 
Tides and Currents Weather Stations Pressure Air Temp Water Temp Dewpoint Dewpoint Depression Visibility Wind Speed Wind Dir Waves Ship Positions

Colorado Star

Last reported at 2014-Jul-23 10:33 UTC. Time now 2014-Jul-23 11:31 UTC.
Position N 49°29' W 000°08'.

Length 128 m; draft 7.8 m.

Type: Ship. MMSI: 248127000.

Date/timePositionNaut miles runAvg speedWind from/ knotsBaromVisibWave heightAir tempDewpointWater temp
2014-Jul-23 10:33N 49°29' W 000°08'0 0.0
2014-Jul-23 09:33N 49°29' W 000°08'0 0.1
2014-Jul-23 08:33N 49°29' W 000°08'0 0.0
2014-Jul-23 07:33N 49°29' W 000°08'0 0.0
2014-Jul-23 06:33N 49°29' W 000°08'0 0.0
2014-Jul-23 05:33N 49°29' W 000°08'0 0.2
2014-Jul-23 04:33N 49°29' W 000°08'0 0.1
2014-Jul-23 03:33N 49°29' W 000°08'0 0.0
2014-Jul-23 02:33N 49°29' W 000°08'0 0.0
2014-Jul-23 01:33N 49°29' W 000°08'0 0.0
2014-Jul-23 00:33N 49°29' W 000°08'0 0.0
2014-Jul-22 23:33N 49°29' W 000°08'0 0.0
2014-Jul-22 22:33N 49°29' W 000°08'0 0.0
2014-Jul-22 21:33N 49°29' W 000°08'0 0.0
2014-Jul-22 20:33N 49°29' W 000°08'0 0.0
2014-Jul-22 19:33N 49°29' W 000°08'0 0.1
2014-Jul-22 18:33N 49°29' W 000°08'0 0.0
2014-Jul-22 17:33N 49°29' W 000°08'0 0.1
2014-Jul-22 16:33N 49°29' W 000°08'0 0.2
2014-Jul-22 15:33N 49°29' W 000°08'0 0.0
2014-Jul-22 14:33N 49°29' W 000°08'0 0.0
2014-Jul-22 13:33N 49°29' W 000°08'0 0.0
2014-Jul-22 12:33N 49°29' W 000°08'0 0.0
2014-Jul-22 11:33N 49°29' W 000°08'0 0.0
2014-Jul-22 10:33N 49°29' W 000°08'2 2.4
2014-Jul-22 09:33N 49°29' W 000°05'1110.7
2014-Jul-22 08:33N 49°26' E 000°11'1110.8
2014-Jul-22 07:33N 49°28' E 000°27'3 3.5
2014-Jul-22 06:33N 49°28' E 000°33'0 0.0
2014-Jul-22 05:21N 49°28' E 000°33'0 0.0
2014-Jul-21 02:33N 49°28' E 000°33'9 8.7
2014-Jul-21 01:33N 49°26' E 000°20'1211.5
2014-Jul-21 00:33N 49°27' E 000°02'5 5.1
2014-Jul-20 23:33N 49°28' W 000°06'0 0.0
2014-Jul-20 22:33N 49°28' W 000°06'0 0.0
2014-Jul-20 21:33N 49°28' W 000°06'0 0.0
2014-Jul-20 20:33N 49°28' W 000°06'0 0.0
2014-Jul-20 19:33N 49°28' W 000°06'0 0.0
2014-Jul-20 18:33N 49°28' W 000°06'0 0.0
2014-Jul-20 17:33N 49°28' W 000°06'0 0.0
2014-Jul-20 16:33N 49°29' W 000°06'6 6.4
2014-Jul-20 15:33N 49°27' E 000°04'1010.5
2014-Jul-20 14:33N 49°26' E 000°20'9 0.7
2014-Jul-20 02:06N 49°28' E 000°33'1 1.4
2014-Jul-20 01:28N 49°28' E 000°32'1011.1
2014-Jul-20 00:33N 49°26' E 000°17'1212.4
2014-Jul-19 23:33N 49°28' W 000°02'3 2.6
2014-Jul-19 22:34N 49°29' W 000°06'0 0.0
2014-Jul-19 21:31N 49°29' W 000°06'0 0.0
2014-Jul-19 20:31N 49°29' W 000°06'0 0.0
2014-Jul-19 19:30N 49°29' W 000°06'0 0.0
2014-Jul-19 18:30N 49°29' W 000°06'0 0.1
2014-Jul-19 17:34N 49°29' W 000°06'0 0.0
2014-Jul-19 16:31N 49°29' W 000°06'0 0.1
2014-Jul-19 15:24N 49°29' W 000°06'0 0.0
2014-Jul-19 14:31N 49°29' W 000°06'0 0.0
2014-Jul-19 13:30N 49°29' W 000°06'0 0.1
2014-Jul-19 12:24N 49°29' W 000°06'0 0.1
2014-Jul-19 11:34N 49°29' W 000°06'0 0.1
2014-Jul-19 10:30N 49°29' W 000°06'0 0.1
2014-Jul-19 09:24N 49°29' W 000°06'0 0.0
2014-Jul-19 08:33N 49°29' W 000°06'0 0.0
2014-Jul-19 07:33N 49°29' W 000°06'0 0.0
2014-Jul-19 06:33N 49°29' W 000°06'0 0.1
2014-Jul-19 05:33N 49°29' W 000°06'0 0.1
2014-Jul-19 04:33N 49°29' W 000°06'0 0.0
2014-Jul-19 03:30N 49°29' W 000°06'0 0.0
2014-Jul-19 02:30N 49°29' W 000°06'0 0.0
2014-Jul-19 01:33N 49°29' W 000°06'0 0.1
2014-Jul-19 00:30N 49°29' W 000°06'0 0.1
2014-Jul-18 23:30N 49°29' W 000°06'0 0.1
2014-Jul-18 22:27N 49°29' W 000°06'0 0.0
2014-Jul-18 21:30N 49°29' W 000°06'0 0.0
2014-Jul-18 20:30N 49°29' W 000°06'0 0.0
2014-Jul-18 19:24N 49°29' W 000°06'0 0.0
2014-Jul-18 18:30N 49°29' W 000°06'0 0.0
2014-Jul-18 17:33N 49°29' W 000°06'0 0.0
2014-Jul-18 16:30N 49°29' W 000°06'0 0.0
2014-Jul-18 15:24N 49°29' W 000°06'0 0.0
2014-Jul-18 14:33N 49°29' W 000°06'0 0.1
2014-Jul-18 13:30N 49°29' W 000°06'0 0.0
2014-Jul-18 12:30N 49°29' W 000°06'3 3.4
2014-Jul-18 11:33N 49°30' W 000°10'1211.8
2014-Jul-18 10:34N 49°42' W 000°10'1312.5
2014-Jul-18 09:32N 49°55' W 000°07'1312.5
2014-Jul-18 08:29N 50°08' W 000°06'1212.4
2014-Jul-18 07:33N 50°19' W 000°04'1111.2
2014-Jul-18 06:33N 50°29' E 000°05'1413.6
2014-Jul-18 05:33N 50°34' E 000°25'1212.3
2014-Jul-18 04:33N 50°39' E 000°42'1111.4
2014-Jul-18 03:33N 50°47' E 000°56'1110.8
2014-Jul-18 02:33N 50°54' E 001°08'1111.2
2014-Jul-18 01:33N 51°02' E 001°22'1413.9
2014-Jul-18 00:33N 51°10' E 001°39'1514.6
2014-Jul-17 23:33N 51°22' E 001°53'1414.1
2014-Jul-17 22:34N 51°32' E 002°08'1312.6
2014-Jul-17 21:34N 51°42' E 002°21'1111.5
2014-Jul-17 20:33N 51°49' E 002°35'1111.4
2014-Jul-17 19:33N 51°47' E 002°53'1111.4
2014-Jul-17 18:33N 51°49' E 003°11'6 6.5
2014-Jul-17 17:33N 51°49' E 003°22'0 0.0
2014-Jul-17 16:33N 51°49' E 003°22'0 0.1
2014-Jul-17 15:33N 51°49' E 003°22'0 0.0
2014-Jul-17 14:34N 51°49' E 003°22'0 0.0
2014-Jul-17 13:33N 51°49' E 003°22'0 0.0
2014-Jul-17 12:33N 51°49' E 003°22'0 0.0
2014-Jul-17 11:34N 51°49' E 003°22'0 0.0
2014-Jul-17 10:33N 51°49' E 003°22'0 0.0
2014-Jul-17 09:33N 51°49' E 003°22'0 0.1
2014-Jul-17 08:31N 51°49' E 003°22'0 0.0
2014-Jul-17 07:30N 51°49' E 003°22'0 0.0
2014-Jul-17 06:29N 51°49' E 003°22'7 7.2
2014-Jul-17 05:33N 51°43' E 003°16'1313.4
2014-Jul-17 04:33N 51°31' E 003°26'9 9.2
2014-Jul-17 03:34N 51°26' E 003°39'8 8.4
2014-Jul-17 02:34N 51°21' E 003°49'9 8.8
2014-Jul-17 01:33N 51°26' E 004°00'8 7.9
2014-Jul-17 00:33N 51°24' E 004°12'9 8.7
2014-Jul-16 23:33N 51°17' E 004°20'0 0.5
2014-Jul-16 22:33N 51°16' E 004°20'2 1.5
2014-Jul-16 21:33N 51°15' E 004°22'0 0.0
2014-Jul-16 20:33N 51°15' E 004°22'0 0.0
2014-Jul-16 19:33N 51°15' E 004°22'0 0.0
2014-Jul-16 18:33N 51°15' E 004°22'0 0.0
2014-Jul-16 17:33N 51°15' E 004°22'0 0.0
2014-Jul-16 16:33N 51°15' E 004°22'0 0.0
2014-Jul-16 15:33N 51°15' E 004°22'0 0.0
2014-Jul-16 14:33N 51°15' E 004°22'0 0.0
2014-Jul-16 13:33N 51°15' E 004°22'0 0.0
2014-Jul-16 12:33N 51°15' E 004°22'0 0.0
2014-Jul-16 11:30N 51°15' E 004°22'0 0.0
2014-Jul-16 10:33N 51°15' E 004°22'0 0.0
2014-Jul-16 09:33N 51°15' E 004°22'0 0.0
2014-Jul-16 08:33N 51°15' E 004°22'0 0.0
2014-Jul-16 07:33N 51°15' E 004°22'0 0.0
2014-Jul-16 06:30N 51°15' E 004°22'0 0.0
2014-Jul-16 05:33N 51°15' E 004°22'0 0.0
2014-Jul-16 04:33N 51°15' E 004°22'0 0.0
2014-Jul-16 03:30N 51°15' E 004°22'0 0.0
2014-Jul-16 02:33N 51°15' E 004°22'0 0.0
2014-Jul-16 01:30N 51°15' E 004°22'0 0.0
2014-Jul-16 00:33N 51°15' E 004°22'2 2.0
2014-Jul-15 23:34N 51°17' E 004°20'3 2.8
2014-Jul-15 22:34N 51°18' E 004°16'7 6.8
2014-Jul-15 21:33N 51°22' E 004°08'7 6.6
2014-Jul-15 20:33N 51°24' E 003°57'8 8.4
2014-Jul-15 19:34N 51°22' E 003°44'8 8.1
2014-Jul-15 18:33N 51°25' E 003°32'1010.3
2014-Jul-15 17:34N 51°25' E 003°16'1211.9
2014-Jul-15 16:33N 51°23' E 002°57'1212.3
2014-Jul-15 15:33N 51°22' E 002°37'9 8.9
2014-Jul-15 14:30N 51°20' E 002°23'1312.3
2014-Jul-15 13:28N 51°13' E 002°05'1112.5
2014-Jul-15 12:34N 51°07' E 001°50'1612.0
2014-Jul-15 11:15N 50°56' E 001°32'710.3
2014-Jul-15 10:32N 50°49' E 001°27'29 9.8
2014-Jul-15 07:34N 50°28' E 000°56'1010.4
2014-Jul-15 06:34N 50°25' E 000°40'1010.2
2014-Jul-15 05:33N 50°22' E 000°25'41 9.8
2014-Jul-15 01:20N 49°46' W 000°09'912.1
2014-Jul-15 00:34N 49°37' W 000°11'9 9.1
2014-Jul-14 23:33N 49°29' W 000°04'1111.2
2014-Jul-14 22:34N 49°26' E 000°13'9 9.1
2014-Jul-14 21:34N 49°28' E 000°26'4 3.9
2014-Jul-14 20:33N 49°28' E 000°32'0 0.0
2014-Jul-14 15:17N 49°28' E 000°32'0 0.0
2014-Jul-14 08:11N 49°28' E 000°32'0 0.0
2014-Jul-14 05:17N 49°28' E 000°32'0 0.0
2014-Jul-14 04:17N 49°28' E 000°32'0 0.0
2014-Jul-13 12:11N 49°28' E 000°32'  

Dump ship's entire track history